Time;durP1;ratioP1;P1;durP2;ratioP2;P2;SDS_P1;SDS_P2;PMS_P1;PMS_P2;Temp;Humidity;BMP_temperature;BMP_pressure;BME280_temperature;BME280_humidity;BME280_pressure;Samples;Min_cycle;Max_cycle;Signal;HPM_P1;HPM_P2
2021/11/21 00:01:01;;;;;;;6.15;1.20;;;15.70;99.90;;;;;;5057677;28;20043;-66
2021/11/21 00:03:29;;;;;;;12.63;1.75;;;15.60;99.90;;;;;;5044161;28;20103;-66
2021/11/21 00:05:56;;;;;;;6.47;1.35;;;15.60;99.90;;;;;;5056442;28;20085;-67
2021/11/21 00:08:23;;;;;;;6.32;1.38;;;15.50;99.90;;;;;;5058441;28;20033;-66
2021/11/21 00:10:51;;;;;;;12.73;2.33;;;15.50;99.90;;;;;;5067841;28;20040;-66
2021/11/21 00:13:18;;;;;;;9.77;1.50;;;15.50;99.90;;;;;;5086993;28;20024;-66
2021/11/21 00:15:45;;;;;;;9.93;1.30;;;15.50;99.90;;;;;;5060794;28;20033;-66
2021/11/21 00:18:13;;;;;;;6.43;0.90;;;15.50;99.90;;;;;;5055788;28;20060;-66
2021/11/21 00:20:43;;;;;;;7.68;1.27;;;15.50;99.90;;;;;;5053169;28;20033;-67
2021/11/21 00:23:11;;;;;;;14.98;3.38;;;15.50;99.90;;;;;;5068184;28;20031;-66
2021/11/21 00:25:39;;;;;;;8.95;1.23;;;15.50;99.90;;;;;;5066110;28;20032;-65
2021/11/21 00:28:06;;;;;;;11.80;1.38;;;15.50;99.90;;;;;;5052300;28;20034;-66
2021/11/21 00:30:34;;;;;;;10.73;3.58;;;15.50;99.90;;;;;;5053846;28;20037;-66
2021/11/21 00:33:02;;;;;;;13.70;1.75;;;15.50;99.90;;;;;;5051127;28;20045;-65
2021/11/21 00:35:29;;;;;;;15.82;5.38;;;15.40;99.90;;;;;;5038278;28;20038;-66
2021/11/21 00:37:58;;;;;;;10.57;5.00;;;15.40;99.90;;;;;;5047194;28;20401;-66
2021/11/21 00:40:27;;;;;;;10.98;1.88;;;15.50;99.90;;;;;;5044042;28;20052;-66
2021/11/21 00:42:57;;;;;;;18.55;4.88;;;15.60;99.90;;;;;;5052623;28;20620;-65
2021/11/21 00:45:26;;;;;;;7.95;1.50;;;15.60;99.90;;;;;;5038359;28;20041;-66
2021/11/21 00:47:53;;;;;;;10.07;1.80;;;15.70;99.90;;;;;;5039651;28;20037;-66
2021/11/21 00:50:28;;;;;;;11.20;2.53;;;15.60;99.90;;;;;;5048846;28;20044;-65
2021/11/21 00:53:00;;;;;;;12.57;2.47;;;15.60;99.90;;;;;;5052708;28;20370;-65
2021/11/21 00:55:40;;;;;;;12.05;3.30;;;15.50;99.90;;;;;;5013997;28;20084;-64
2021/11/21 00:58:10;;;;;;;10.50;2.90;;;15.50;99.90;;;;;;5035382;28;20037;-64
2021/11/21 01:00:41;;;;;;;8.10;2.55;;;15.50;99.90;;;;;;5060699;28;20083;-64
2021/11/21 01:03:12;;;;;;;11.82;2.55;;;15.50;99.90;;;;;;5057660;28;20083;-65
2021/11/21 01:05:40;;;;;;;14.20;2.45;;;15.50;99.90;;;;;;5035341;28;20025;-65
2021/11/21 01:08:08;;;;;;;12.38;2.75;;;15.50;99.90;;;;;;5038894;28;20037;-65
2021/11/21 01:10:36;;;;;;;11.30;2.88;;;15.50;99.90;;;;;;5039881;28;20124;-64
2021/11/21 01:13:04;;;;;;;14.65;1.60;;;15.40;99.90;;;;;;5042789;28;20053;-65
2021/11/21 01:15:33;;;;;;;12.15;3.67;;;15.30;99.90;;;;;;5043783;28;20028;-65
2021/11/21 01:18:00;;;;;;;12.13;4.68;;;15.40;99.90;;;;;;5036473;28;20104;-65
2021/11/21 01:20:32;;;;;;;6.70;1.60;;;15.30;99.90;;;;;;5037610;28;20074;-64
2021/11/21 01:23:00;;;;;;;8.05;1.60;;;15.40;99.90;;;;;;5037445;28;20021;-65
2021/11/21 01:25:28;;;;;;;13.40;1.73;;;15.30;99.90;;;;;;5045536;28;20029;-65
2021/11/21 01:27:56;;;;;;;7.75;2.72;;;15.20;99.90;;;;;;5047244;28;20041;-65
2021/11/21 01:30:27;;;;;;;12.65;3.53;;;15.20;99.90;;;;;;5039940;28;20041;-65
2021/11/21 01:32:56;;;;;;;15.05;5.10;;;15.20;99.90;;;;;;5045830;28;20156;-64
2021/11/21 01:35:24;;;;;;;10.48;1.65;;;15.20;99.90;;;;;;5046883;28;20450;-64
2021/11/21 01:37:52;;;;;;;11.05;2.85;;;15.20;99.90;;;;;;5050604;28;20036;-65
2021/11/21 01:40:21;;;;;;;20.42;3.90;;;15.20;99.90;;;;;;5039941;28;20481;-64
2021/11/21 01:42:51;;;;;;;8.23;2.25;;;15.30;99.90;;;;;;5033916;28;20070;-65
2021/11/21 01:45:18;;;;;;;12.27;2.55;;;15.30;99.90;;;;;;5045708;28;20038;-65
2021/11/21 01:47:47;;;;;;;11.07;1.63;;;15.40;99.90;;;;;;5049819;28;20036;-65
2021/11/21 01:50:45;;;;;;;11.88;2.40;;;15.30;99.90;;;;;;5037625;28;20049;-64
2021/11/21 01:53:15;;;;;;;6.43;1.38;;;15.30;99.90;;;;;;5027532;28;20056;-65
2021/11/21 01:55:47;;;;;;;10.68;1.55;;;15.30;99.90;;;;;;5035206;28;20474;-64
2021/11/21 01:58:15;;;;;;;7.75;1.63;;;15.30;99.90;;;;;;5036856;28;20028;-66
2021/11/21 02:00:44;;;;;;;7.78;1.80;;;15.30;99.90;;;;;;5038389;28;20366;-64
2021/11/21 02:03:12;;;;;;;6.50;1.25;;;15.20;99.90;;;;;;5048463;28;20028;-64
2021/11/21 02:05:39;;;;;;;10.13;2.50;;;15.20;99.90;;;;;;5039082;28;20087;-65
2021/11/21 02:08:09;;;;;;;4.63;2.67;;;15.20;99.90;;;;;;5033807;28;20025;-65
2021/11/21 02:10:37;;;;;;;19.63;8.45;;;15.30;99.90;;;;;;5043024;28;20126;-65
2021/11/21 02:13:06;;;;;;;11.23;5.55;;;15.30;99.90;;;;;;5039117;28;20033;-65
2021/11/21 02:15:36;;;;;;;7.35;1.77;;;15.30;99.90;;;;;;5039543;28;20452;-65
2021/11/21 02:18:04;;;;;;;7.85;1.77;;;15.20;99.90;;;;;;5032219;28;20079;-64
2021/11/21 02:20:35;;;;;;;10.93;3.70;;;15.30;99.90;;;;;;5034925;28;20488;-64
2021/11/21 02:23:04;;;;;;;9.02;3.75;;;15.30;99.90;;;;;;5039528;28;20028;-65
2021/11/21 02:25:32;;;;;;;12.52;2.47;;;15.20;99.90;;;;;;5032514;28;20117;-65
2021/11/21 02:27:59;;;;;;;11.32;2.63;;;15.30;99.90;;;;;;5032463;28;20061;-64
2021/11/21 02:30:27;;;;;;;10.75;1.80;;;15.30;99.90;;;;;;5031622;28;20121;-65
2021/11/21 02:32:54;;;;;;;10.10;2.00;;;15.30;99.90;;;;;;5031559;28;20091;-65
2021/11/21 02:35:23;;;;;;;11.13;2.88;;;15.30;99.90;;;;;;5038500;28;20148;-65
2021/11/21 02:37:51;;;;;;;12.10;2.80;;;15.30;99.90;;;;;;5032355;28;20026;-65
2021/11/21 02:40:22;;;;;;;9.63;2.10;;;15.40;99.90;;;;;;5034292;28;20460;-65
2021/11/21 02:42:49;;;;;;;17.05;2.58;;;15.40;99.90;;;;;;5032258;28;20026;-65
2021/11/21 02:45:18;;;;;;;17.42;2.08;;;15.40;99.90;;;;;;5041488;28;20486;-66
2021/11/21 02:47:46;;;;;;;17.48;3.33;;;15.40;99.90;;;;;;5032845;28;20528;-67
2021/11/21 02:50:21;;;;;;;12.43;1.40;;;15.50;99.90;;;;;;5037512;28;20048;-66
2021/11/21 02:52:50;;;;;;;7.82;1.02;;;15.60;99.90;;;;;;5034127;28;20439;-65
2021/11/21 02:55:18;;;;;;;11.27;1.90;;;15.50;99.90;;;;;;5034413;28;20091;-64
2021/11/21 02:57:46;;;;;;;10.93;2.00;;;15.50;99.90;;;;;;5037683;28;20389;-65
2021/11/21 03:00:16;;;;;;;10.30;1.55;;;15.50;99.90;;;;;;5041261;28;20025;-65
2021/11/21 03:02:46;;;;;;;11.85;1.70;;;15.50;99.90;;;;;;5030210;28;20066;-66
2021/11/21 03:05:14;;;;;;;14.82;1.48;;;15.60;99.90;;;;;;5030148;28;20090;-66
2021/11/21 03:07:43;;;;;;;4.90;0.90;;;15.60;99.90;;;;;;5035172;28;20095;-66
2021/11/21 03:10:14;;;;;;;8.35;3.13;;;15.50;99.90;;;;;;5031702;28;20017;-66
2021/11/21 03:12:42;;;;;;;14.30;1.90;;;15.60;99.90;;;;;;5040186;28;20108;-65
2021/11/21 03:15:10;;;;;;;6.03;1.30;;;15.60;99.90;;;;;;5036495;28;20035;-65
2021/11/21 03:17:39;;;;;;;11.20;1.00;;;15.50;99.90;;;;;;5037520;28;20052;-65
2021/11/21 03:20:07;;;;;;;6.38;1.17;;;15.50;99.90;;;;;;5043110;28;20496;-66
2021/11/21 03:22:34;;;;;;;8.20;1.65;;;15.50;99.90;;;;;;5042087;28;20780;-65
2021/11/21 03:25:02;;;;;;;5.22;1.88;;;15.50;99.90;;;;;;5045161;28;20021;-65
2021/11/21 03:27:29;;;;;;;9.35;1.35;;;15.50;99.90;;;;;;5038436;28;20029;-65
2021/11/21 03:29:56;;;;;;;7.40;1.15;;;15.50;99.90;;;;;;5037199;28;20039;-68
2021/11/21 03:32:24;;;;;;;5.30;1.10;;;15.40;99.90;;;;;;5038339;28;20117;-67
2021/11/21 03:34:51;;;;;;;6.82;1.63;;;15.40;99.90;;;;;;5040060;28;20500;-68
2021/11/21 03:37:18;;;;;;;8.20;1.70;;;15.50;99.90;;;;;;5043276;28;20033;-68
2021/11/21 03:39:46;;;;;;;7.35;1.55;;;15.50;99.90;;;;;;5040638;28;20013;-67
2021/11/21 03:42:13;;;;;;;4.88;1.17;;;15.50;99.90;;;;;;5044098;28;20088;-67
2021/11/21 03:44:40;;;;;;;8.15;1.65;;;15.50;99.90;;;;;;5044076;28;20033;-67
2021/11/21 03:47:07;;;;;;;6.50;0.60;;;15.60;99.90;;;;;;5049250;28;20040;-68
2021/11/21 03:49:35;;;;;;;10.52;1.70;;;15.60;99.90;;;;;;5046295;28;20022;-67
2021/11/21 03:52:03;;;;;;;6.90;1.63;;;15.60;99.90;;;;;;5058618;28;20535;-67
2021/11/21 03:54:30;;;;;;;7.85;1.73;;;15.60;99.90;;;;;;5033596;28;20022;-67
2021/11/21 03:56:57;;;;;;;8.27;1.63;;;15.70;99.90;;;;;;5032606;28;20385;-68
2021/11/21 03:59:25;;;;;;;7.95;2.60;;;15.60;99.90;;;;;;5035561;28;20033;-68
2021/11/21 04:01:54;;;;;;;5.25;0.82;;;15.60;99.90;;;;;;5037703;28;20025;-67
2021/11/21 04:04:21;;;;;;;5.57;0.75;;;15.70;99.90;;;;;;5043942;28;20498;-67
2021/11/21 04:06:50;;;;;;;6.47;1.25;;;15.70;99.90;;;;;;5042609;28;20113;-68
2021/11/21 04:09:17;;;;;;;7.10;0.93;;;15.70;99.90;;;;;;5035732;28;20033;-69
2021/11/21 04:11:45;;;;;;;7.22;1.25;;;15.70;99.90;;;;;;5027264;28;20034;-68
2021/11/21 04:14:12;;;;;;;6.03;1.20;;;15.70;99.90;;;;;;5044128;28;20029;-68
2021/11/21 04:16:40;;;;;;;11.20;1.48;;;15.60;99.90;;;;;;5051691;28;20032;-69
2021/11/21 04:19:09;;;;;;;10.05;2.00;;;15.50;99.90;;;;;;5033428;28;20021;-69
2021/11/21 04:21:37;;;;;;;10.50;1.20;;;15.60;99.90;;;;;;5033470;28;20025;-69
2021/11/21 04:24:06;;;;;;;7.38;1.13;;;15.60;99.90;;;;;;5033145;28;20033;-69
2021/11/21 04:26:33;;;;;;;6.18;1.67;;;15.60;99.90;;;;;;5033131;28;20032;-69
2021/11/21 04:29:00;;;;;;;8.15;1.02;;;15.60;99.90;;;;;;5033024;28;20512;-69
2021/11/21 04:31:28;;;;;;;5.28;0.82;;;15.70;99.90;;;;;;5031867;28;20036;-69
2021/11/21 04:33:55;;;;;;;8.68;1.48;;;15.70;99.90;;;;;;5033360;28;20032;-69
2021/11/21 04:36:23;;;;;;;10.88;1.48;;;15.60;99.90;;;;;;5032747;28;20022;-69
2021/11/21 04:38:50;;;;;;;12.82;2.63;;;15.70;99.90;;;;;;5032374;28;20100;-69
2021/11/21 04:41:18;;;;;;;12.60;1.83;;;15.70;99.90;;;;;;5029925;28;20084;-68
2021/11/21 04:43:45;;;;;;;12.68;1.70;;;15.70;99.90;;;;;;5034582;28;20117;-68
2021/11/21 04:46:12;;;;;;;10.15;2.05;;;15.70;99.90;;;;;;5033435;28;20104;-68
2021/11/21 04:48:40;;;;;;;14.00;2.22;;;15.70;99.90;;;;;;5032283;28;20053;-67
2021/11/21 04:51:07;;;;;;;12.45;2.70;;;15.60;99.90;;;;;;5034401;28;20073;-66
2021/11/21 04:53:34;;;;;;;13.85;2.17;;;15.60;99.90;;;;;;5033268;28;20119;-67
2021/11/21 04:56:01;;;;;;;11.90;1.85;;;15.50;99.90;;;;;;5036650;28;20485;-68
2021/11/21 04:58:29;;;;;;;9.25;2.53;;;15.50;99.90;;;;;;5034225;28;20033;-68
2021/11/21 05:00:56;;;;;;;9.00;1.42;;;15.60;99.90;;;;;;5037300;28;20025;-67
2021/11/21 05:03:23;;;;;;;14.57;2.25;;;15.60;99.90;;;;;;5039199;28;20506;-67
2021/11/21 05:05:51;;;;;;;9.35;1.38;;;15.60;99.90;;;;;;5036569;28;20428;-68
2021/11/21 05:08:18;;;;;;;13.18;1.88;;;15.70;99.90;;;;;;5034004;28;20037;-67
2021/11/21 05:10:45;;;;;;;11.45;2.17;;;15.70;99.90;;;;;;5039433;28;20040;-68
2021/11/21 05:13:12;;;;;;;14.80;1.58;;;15.70;99.90;;;;;;5037397;28;20056;-68
2021/11/21 05:15:40;;;;;;;9.80;1.73;;;15.80;99.90;;;;;;5035667;28;20026;-68
2021/11/21 05:18:07;;;;;;;12.30;2.38;;;15.80;99.90;;;;;;5036192;28;20113;-67
2021/11/21 05:20:36;;;;;;;13.02;1.42;;;15.80;99.90;;;;;;5037242;28;20017;-68
2021/11/21 05:23:03;;;;;;;13.00;1.10;;;15.70;99.90;;;;;;5033982;28;20091;-68
2021/11/21 05:25:30;;;;;;;10.50;1.75;;;15.60;99.90;;;;;;5035623;28;20425;-67
2021/11/21 05:27:58;;;;;;;8.05;1.00;;;15.50;99.90;;;;;;5041925;28;20042;-68
2021/11/21 05:30:25;;;;;;;5.95;0.82;;;15.60;99.90;;;;;;5036138;28;20608;-68
2021/11/21 05:32:53;;;;;;;5.35;1.17;;;15.50;99.90;;;;;;5035155;28;20604;-68
2021/11/21 05:35:20;;;;;;;12.55;1.35;;;15.50;99.90;;;;;;5065783;28;20550;-69
2021/11/21 05:37:51;;;;;;;7.88;1.08;;;15.50;99.90;;;;;;5043124;28;20021;-68
2021/11/21 05:40:19;;;;;;;7.03;1.23;;;15.50;99.90;;;;;;5035330;28;20033;-67
2021/11/21 05:42:46;;;;;;;7.65;1.20;;;15.40;99.90;;;;;;5037362;28;20018;-67
2021/11/21 05:45:14;;;;;;;7.63;1.02;;;15.40;99.90;;;;;;5034936;28;20131;-68
2021/11/21 05:47:41;;;;;;;10.48;1.92;;;15.40;99.90;;;;;;5037108;28;20034;-66
2021/11/21 05:50:12;;;;;;;17.23;3.95;;;15.40;99.90;;;;;;5036434;28;20034;-68
2021/11/21 05:52:48;;;;;;;13.93;1.45;;;15.40;99.90;;;;;;5034975;28;20111;-67
2021/11/21 05:55:18;;;;;;;9.82;2.08;;;15.30;99.90;;;;;;5035957;28;20030;-68
2021/11/21 05:57:46;;;;;;;17.33;2.03;;;15.40;99.90;;;;;;5036188;28;20028;-68
2021/11/21 06:00:16;;;;;;;15.73;1.65;;;15.40;99.90;;;;;;5032671;28;20029;-67
2021/11/21 06:02:44;;;;;;;9.05;1.30;;;15.40;99.90;;;;;;5037801;28;20080;-69
2021/11/21 06:05:12;;;;;;;15.48;2.58;;;15.40;99.90;;;;;;5035063;28;20021;-69
2021/11/21 06:07:39;;;;;;;14.23;2.17;;;15.40;99.90;;;;;;5032731;28;20109;-68
2021/11/21 06:10:07;;;;;;;9.02;2.03;;;15.50;99.90;;;;;;5035192;28;20104;-69
2021/11/21 06:12:36;;;;;;;20.13;2.08;;;15.50;99.90;;;;;;5036871;28;20094;-69
2021/11/21 06:15:04;;;;;;;14.73;2.10;;;15.50;99.90;;;;;;5035275;28;20437;-69
2021/11/21 06:17:31;;;;;;;14.98;2.50;;;15.50;99.90;;;;;;5051683;28;20029;-68
2021/11/21 06:19:59;;;;;;;14.75;1.90;;;15.50;99.90;;;;;;5036789;28;20033;-70
2021/11/21 06:22:26;;;;;;;21.48;3.67;;;15.50;99.90;;;;;;5033806;28;20017;-69
2021/11/21 06:24:55;;;;;;;17.10;2.80;;;15.50;99.90;;;;;;5043451;28;20024;-69
2021/11/21 06:27:23;;;;;;;17.60;2.80;;;15.60;99.90;;;;;;5038777;28;20043;-70
2021/11/21 06:29:50;;;;;;;17.70;2.75;;;15.50;99.90;;;;;;5044261;28;20032;-69
2021/11/21 06:32:17;;;;;;;21.17;2.88;;;15.60;99.90;;;;;;5049227;28;20028;-69
2021/11/21 06:34:45;;;;;;;19.60;2.45;;;15.60;99.90;;;;;;5045979;28;20075;-69
2021/11/21 06:37:12;;;;;;;29.85;3.45;;;15.60;99.90;;;;;;5043565;28;20083;-69
2021/11/21 06:39:41;;;;;;;14.13;2.55;;;15.70;99.90;;;;;;5062203;28;20025;-69
2021/11/21 06:42:11;;;;;;;20.55;3.83;;;15.70;99.90;;;;;;5053910;28;20029;-69
2021/11/21 06:44:39;;;;;;;14.77;1.73;;;15.80;99.90;;;;;;5057019;28;20025;-68
2021/11/21 06:47:06;;;;;;;22.63;3.45;;;15.80;99.90;;;;;;5053555;28;20026;-69
2021/11/21 06:49:34;;;;;;;21.80;2.67;;;15.80;99.90;;;;;;5053072;28;20029;-70
2021/11/21 06:52:01;;;;;;;20.05;2.85;;;15.90;99.90;;;;;;5047651;28;20497;-69
2021/11/21 06:54:29;;;;;;;22.60;2.38;;;16.00;99.90;;;;;;5040845;28;20044;-69
2021/11/21 06:56:56;;;;;;;16.83;1.67;;;16.00;99.90;;;;;;5056939;28;20033;-70
2021/11/21 06:59:23;;;;;;;24.45;3.30;;;16.10;99.90;;;;;;5027344;28;20026;-72
2021/11/21 07:01:50;;;;;;;12.57;1.50;;;16.10;99.90;;;;;;5040016;28;20089;-70
2021/11/21 07:04:18;;;;;;;16.13;1.23;;;16.20;99.90;;;;;;5041408;28;20498;-71
2021/11/21 07:06:48;;;;;;;14.15;2.67;;;16.20;99.90;;;;;;5046703;28;20029;-71
2021/11/21 07:09:17;;;;;;;8.32;1.70;;;16.20;99.90;;;;;;5068325;28;20029;-70
2021/11/21 07:11:48;;;;;;;16.80;1.98;;;16.30;99.90;;;;;;5042279;28;20033;-70
2021/11/21 07:14:16;;;;;;;10.32;1.65;;;16.40;99.90;;;;;;5054049;28;20018;-70
2021/11/21 07:16:46;;;;;;;8.80;1.30;;;16.30;99.90;;;;;;5031014;28;20036;-70
2021/11/21 07:19:14;;;;;;;18.30;2.60;;;16.30;99.90;;;;;;5041094;28;20022;-70
2021/11/21 07:21:41;;;;;;;16.42;3.38;;;16.30;99.90;;;;;;5035739;28;20086;-71
2021/11/21 07:24:09;;;;;;;12.95;2.58;;;16.40;99.90;;;;;;5050170;28;20037;-70
2021/11/21 07:26:36;;;;;;;13.15;1.75;;;16.40;99.90;;;;;;5034187;28;20434;-69
2021/11/21 07:29:05;;;;;;;16.77;2.10;;;16.30;99.90;;;;;;5038422;28;20052;-70
2021/11/21 07:31:34;;;;;;;14.07;2.55;;;16.40;99.90;;;;;;5039351;28;20040;-70
2021/11/21 07:34:02;;;;;;;11.45;1.88;;;16.40;99.90;;;;;;5043278;28;20516;-70
2021/11/21 07:36:30;;;;;;;16.15;2.17;;;16.50;99.90;;;;;;5040746;28;20297;-73
2021/11/21 07:38:57;;;;;;;16.13;2.45;;;16.50;99.90;;;;;;5030945;28;20036;-73
2021/11/21 07:41:24;;;;;;;15.73;2.30;;;16.50;99.90;;;;;;5038223;28;20432;-70
2021/11/21 07:43:52;;;;;;;15.88;3.38;;;16.50;99.90;;;;;;5047237;28;20048;-70
2021/11/21 07:46:20;;;;;;;15.30;2.58;;;16.50;99.90;;;;;;5050435;28;20045;-71
2021/11/21 07:48:47;;;;;;;13.02;1.55;;;16.50;99.90;;;;;;5038293;28;20469;-70
2021/11/21 07:51:14;;;;;;;18.50;2.63;;;16.60;99.90;;;;;;5042790;28;20044;-70
2021/11/21 07:53:42;;;;;;;17.48;2.75;;;16.60;99.90;;;;;;5050841;28;20040;-70
2021/11/21 07:56:09;;;;;;;13.50;1.63;;;16.60;99.90;;;;;;5050270;28;20044;-70
2021/11/21 07:58:36;;;;;;;16.83;2.40;;;16.60;99.90;;;;;;5037990;28;20017;-69
2021/11/21 08:01:04;;;;;;;12.75;1.65;;;16.60;99.90;;;;;;5052136;28;20021;-70
2021/11/21 08:03:31;;;;;;;16.08;2.50;;;16.60;99.90;;;;;;5045091;28;20024;-70
2021/11/21 08:05:59;;;;;;;12.93;2.08;;;16.60;99.90;;;;;;5038581;28;20547;-70
2021/11/21 08:08:26;;;;;;;13.13;2.22;;;16.70;99.90;;;;;;5051103;28;20091;-69
2021/11/21 08:10:53;;;;;;;13.40;1.85;;;16.70;99.90;;;;;;5047655;28;20044;-70
2021/11/21 08:13:20;;;;;;;14.15;1.63;;;16.70;99.90;;;;;;5041208;28;20390;-69
2021/11/21 08:15:48;;;;;;;16.17;2.40;;;16.80;99.90;;;;;;5053841;28;20025;-70
2021/11/21 08:18:16;;;;;;;12.40;2.10;;;16.80;99.90;;;;;;5038129;28;20063;-69
2021/11/21 08:20:43;;;;;;;10.63;1.83;;;16.80;99.90;;;;;;5040429;28;20405;-70
2021/11/21 08:23:10;;;;;;;14.60;2.63;;;16.80;99.90;;;;;;5040271;28;20017;-70
2021/11/21 08:25:38;;;;;;;7.95;1.50;;;16.80;99.90;;;;;;5023962;28;20025;-70
2021/11/21 08:28:06;;;;;;;15.98;1.63;;;16.70;99.90;;;;;;5036466;28;20527;-69
2021/11/21 08:30:37;;;;;;;17.67;1.83;;;16.80;99.90;;;;;;5034564;28;20099;-69
2021/11/21 08:33:10;;;;;;;13.05;2.13;;;16.70;99.90;;;;;;5044923;28;20025;-69
2021/11/21 08:35:38;;;;;;;15.68;3.30;;;16.80;99.90;;;;;;5037801;28;20437;-69
2021/11/21 08:38:06;;;;;;;9.48;2.03;;;16.80;99.90;;;;;;5043051;28;20035;-69
2021/11/21 08:40:33;;;;;;;16.42;2.05;;;16.80;99.90;;;;;;5033724;28;20033;-70
2021/11/21 08:43:02;;;;;;;17.02;1.85;;;16.80;99.90;;;;;;5034333;28;20030;-70
2021/11/21 08:45:32;;;;;;;13.70;2.78;;;16.80;99.90;;;;;;5035018;28;20069;-70
2021/11/21 08:48:01;;;;;;;7.45;1.63;;;16.80;99.90;;;;;;5043438;28;20032;-69
2021/11/21 08:50:29;;;;;;;9.20;0.73;;;16.80;99.90;;;;;;5068191;28;20406;-70
2021/11/21 08:52:56;;;;;;;9.93;1.08;;;16.70;99.90;;;;;;5039780;28;20050;-70
2021/11/21 08:55:24;;;;;;;6.53;1.63;;;16.60;99.90;;;;;;5049884;28;20033;-70
2021/11/21 08:57:51;;;;;;;10.48;2.03;;;16.60;99.90;;;;;;5055836;28;20049;-69
2021/11/21 09:00:20;;;;;;;13.32;0.98;;;16.50;99.90;;;;;;5048452;28;20515;-69
2021/11/21 09:02:48;;;;;;;11.70;1.15;;;16.60;99.90;;;;;;5042584;28;20063;-69
2021/11/21 09:05:15;;;;;;;11.07;2.17;;;16.60;99.90;;;;;;5035379;28;20033;-70
2021/11/21 09:07:44;;;;;;;7.13;1.00;;;16.60;99.90;;;;;;5026712;28;20386;-69
2021/11/21 09:10:15;;;;;;;12.75;1.70;;;16.60;99.90;;;;;;5050086;28;20112;-69
2021/11/21 09:12:44;;;;;;;10.02;2.60;;;16.60;99.90;;;;;;5043032;28;20029;-69
2021/11/21 09:15:16;;;;;;;8.15;1.92;;;16.60;99.90;;;;;;5050697;28;20565;-69
2021/11/21 09:17:45;;;;;;;9.23;1.75;;;16.70;99.90;;;;;;5043233;28;20033;-69
2021/11/21 09:20:14;;;;;;;9.40;1.10;;;16.80;99.90;;;;;;5039161;28;20025;-70
2021/11/21 09:22:41;;;;;;;11.15;1.13;;;16.90;99.90;;;;;;5053475;28;20052;-70
2021/11/21 09:25:10;;;;;;;10.95;1.33;;;17.00;99.90;;;;;;5048611;28;20029;-70
2021/11/21 09:27:37;;;;;;;13.10;1.48;;;17.00;99.90;;;;;;5048558;28;20526;-69
2021/11/21 09:30:07;;;;;;;10.13;1.70;;;16.90;99.90;;;;;;5049602;28;20025;-70
2021/11/21 09:32:35;;;;;;;13.13;1.60;;;17.00;99.90;;;;;;5050773;28;20033;-69
2021/11/21 09:35:03;;;;;;;10.10;1.52;;;17.00;99.90;;;;;;5048325;28;20030;-69
2021/11/21 09:37:30;;;;;;;13.05;1.38;;;17.00;99.90;;;;;;5033629;28;20116;-70
2021/11/21 09:39:58;;;;;;;10.05;1.95;;;17.00;99.90;;;;;;5041974;28;20027;-69
2021/11/21 09:42:25;;;;;;;8.95;1.52;;;17.00;99.90;;;;;;5032160;28;20087;-69
2021/11/21 09:44:53;;;;;;;12.35;1.70;;;17.00;99.90;;;;;;5052858;28;20033;-69
2021/11/21 09:47:20;;;;;;;13.20;1.63;;;17.00;99.90;;;;;;5054570;28;20079;-69
2021/11/21 09:49:47;;;;;;;11.75;2.03;;;17.00;99.90;;;;;;5067813;28;20037;-69
2021/11/21 09:52:16;;;;;;;15.85;2.25;;;17.00;99.90;;;;;;5047291;28;20094;-69
2021/11/21 09:54:43;;;;;;;13.10;1.58;;;17.00;99.90;;;;;;5054566;28;20029;-69
2021/11/21 09:57:11;;;;;;;13.80;1.48;;;17.00;99.90;;;;;;5050614;28;20040;-69
2021/11/21 10:00:02;;;;;;;12.90;2.95;;;17.00;99.90;;;;;;5048904;28;20079;-69
2021/11/21 10:02:32;;;;;;;16.58;1.98;;;17.00;99.90;;;;;;5037114;28;20024;-69
2021/11/21 10:05:06;;;;;;;13.02;2.20;;;17.00;99.90;;;;;;5033868;28;20017;-69
2021/11/21 10:07:34;;;;;;;;;;;17.00;99.90;;;;;;5039652;28;20447;-69
2021/11/21 10:10:05;;;;;;;14.57;1.70;;;17.00;99.90;;;;;;5049639;28;19920;-69
2021/11/21 10:12:42;;;;;;;17.60;2.40;;;17.00;99.90;;;;;;5030823;28;20068;-69
2021/11/21 10:15:14;;;;;;;15.15;2.15;;;17.00;99.90;;;;;;5051539;28;20032;-70
2021/11/21 10:17:50;;;;;;;8.13;1.95;;;17.00;99.90;;;;;;5033429;28;20492;-70
2021/11/21 10:20:24;;;;;;;11.57;2.13;;;17.10;99.90;;;;;;5013839;28;20045;-70
2021/11/21 10:23:06;;;;;;;14.13;2.33;;;17.10;99.90;;;;;;5037400;28;20029;-70
2021/11/21 10:25:41;;;;;;;11.38;1.70;;;17.10;99.90;;;;;;5037311;28;20033;-70
2021/11/21 10:28:19;;;;;;;11.07;1.92;;;17.10;99.90;;;;;;5049449;28;20077;-70
2021/11/21 10:31:12;;;;;;;13.60;2.03;;;17.20;99.90;;;;;;5036917;28;20025;-70
2021/11/21 10:33:44;;;;;;;14.05;2.63;;;17.20;99.90;;;;;;5043972;28;20025;-70
2021/11/21 10:36:21;;;;;;;14.18;1.83;;;17.20;99.90;;;;;;5042910;28;20025;-70
2021/11/21 10:39:01;;;;;;;18.27;3.08;;;17.20;99.90;;;;;;5041776;28;20052;-70
2021/11/21 10:41:31;;;;;;;18.38;2.03;;;17.10;99.90;;;;;;5043100;28;20026;-70
2021/11/21 10:44:16;;;;;;;10.98;1.67;;;17.10;99.90;;;;;;5042807;28;20021;-70
2021/11/21 10:46:53;;;;;;;12.05;2.25;;;17.10;99.90;;;;;;5039471;28;20068;-68
2021/11/21 10:49:33;;;;;;;10.48;2.25;;;16.90;99.90;;;;;;5045580;28;20032;-69
2021/11/21 10:52:04;;;;;;;20.52;2.67;;;16.60;99.90;;;;;;5044966;28;20036;-69
2021/11/21 10:54:33;;;;;;;19.38;3.28;;;16.40;99.90;;;;;;5038434;28;20041;-69
2021/11/21 10:57:03;;;;;;;14.50;2.92;;;16.30;99.90;;;;;;5038115;28;20021;-69
2021/11/21 10:59:34;;;;;;;16.48;1.95;;;16.20;99.90;;;;;;5035751;28;20052;-68
2021/11/21 11:02:13;;;;;;;18.35;2.72;;;16.10;99.90;;;;;;5042546;28;20070;-68
2021/11/21 11:04:57;;;;;;;16.63;2.13;;;16.10;99.90;;;;;;5032320;28;20030;-69
2021/11/21 11:07:24;;;;;;;20.95;1.83;;;16.10;99.90;;;;;;5031694;28;20152;-68
2021/11/21 11:09:53;;;;;;;16.48;2.38;;;16.10;99.90;;;;;;5048013;28;20115;-70
2021/11/21 11:12:23;;;;;;;17.98;2.20;;;16.10;99.90;;;;;;5051916;28;20021;-69
2021/11/21 11:14:53;;;;;;;20.50;3.35;;;16.00;99.90;;;;;;5052068;28;20021;-69
2021/11/21 11:17:20;;;;;;;15.38;2.72;;;15.90;99.90;;;;;;5063999;28;20040;-69
2021/11/21 11:19:50;;;;;;;15.82;2.15;;;15.80;99.90;;;;;;5032729;28;20111;-69
2021/11/21 11:22:17;;;;;;;15.43;2.65;;;15.70;99.90;;;;;;5032336;28;20146;-69
2021/11/21 11:24:46;;;;;;;20.08;2.20;;;15.80;99.90;;;;;;5027231;28;20026;-68
2021/11/21 11:27:39;;;;;;;18.23;2.55;;;15.70;99.90;;;;;;5032803;28;20034;-68
2021/11/21 11:30:07;;;;;;;17.38;3.05;;;15.70;99.90;;;;;;5032069;28;20029;-68
2021/11/21 11:32:37;;;;;;;18.77;2.22;;;15.80;99.90;;;;;;5032114;28;20021;-68
2021/11/21 11:35:27;;;;;;;17.73;1.92;;;15.70;99.90;;;;;;5032073;28;20021;-68
2021/11/21 11:37:56;;;;;;;14.80;1.40;;;15.80;99.90;;;;;;5030416;28;20033;-69
2021/11/21 11:40:31;;;;;;;20.92;2.38;;;15.80;99.90;;;;;;5034391;28;20029;-69
2021/11/21 11:43:23;;;;;;;12.93;1.50;;;15.90;99.90;;;;;;5036708;28;20124;-68
2021/11/21 11:45:56;;;;;;;17.27;3.10;;;15.90;99.90;;;;;;5032296;28;20049;-68
2021/11/21 11:48:41;;;;;;;17.35;1.80;;;16.00;99.90;;;;;;5034626;28;20030;-69
2021/11/21 11:51:15;;;;;;;17.70;3.05;;;16.00;99.90;;;;;;5042380;28;20028;-69
2021/11/21 11:53:45;;;;;;;13.57;1.42;;;16.00;99.90;;;;;;5047111;28;20402;-68
2021/11/21 11:56:30;;;;;;;22.30;3.42;;;16.00;99.90;;;;;;5044377;28;20060;-69
2021/11/21 11:59:04;;;;;;;19.70;2.35;;;16.00;99.90;;;;;;5045605;28;20500;-69
2021/11/21 12:01:38;;;;;;;25.02;2.53;;;16.00;99.90;;;;;;5048000;28;20052;-69
2021/11/21 12:04:09;;;;;;;20.53;2.40;;;16.00;99.90;;;;;;5035507;28;20373;-69
2021/11/21 12:06:50;;;;;;;15.75;1.98;;;16.00;99.90;;;;;;5035366;28;20385;-69
2021/11/21 12:09:17;;;;;;;19.83;2.25;;;16.10;99.90;;;;;;5015320;28;20072;-69
2021/11/21 12:11:59;;;;;;;11.27;2.08;;;16.10;99.90;;;;;;5015550;28;20028;-69
2021/11/21 12:14:31;;;;;;;13.85;1.90;;;16.00;99.90;;;;;;5015435;28;20080;-69
2021/11/21 12:17:12;;;;;;;14.25;2.85;;;16.00;99.90;;;;;;5030979;28;20087;-69
2021/11/21 12:19:39;;;;;;;21.23;2.53;;;16.00;99.90;;;;;;5032834;28;20529;-69
2021/11/21 12:22:28;;;;;;;21.05;3.58;;;16.00;99.90;;;;;;5037860;28;20029;-69
2021/11/21 12:24:58;;;;;;;14.82;2.15;;;16.00;99.90;;;;;;5037728;28;20049;-69
2021/11/21 12:27:28;;;;;;;17.88;3.78;;;15.90;99.90;;;;;;5053897;28;20420;-69
2021/11/21 12:30:14;;;;;;;19.90;3.08;;;16.00;99.90;;;;;;5035116;28;20025;-69
2021/11/21 12:32:59;;;;;;;24.52;1.92;;;16.00;99.90;;;;;;5042859;28;20021;-69
2021/11/21 12:35:41;;;;;;;19.90;2.90;;;16.00;99.90;;;;;;5037029;28;20021;-69
2021/11/21 12:38:37;;;;;;;31.88;4.38;;;16.00;99.90;;;;;;5041651;28;20025;-69
2021/11/21 12:41:08;;;;;;;25.25;3.80;;;16.10;99.90;;;;;;5031913;28;20056;-69
2021/11/21 12:43:36;;;;;;;23.50;3.30;;;16.10;99.90;;;;;;5042299;28;20507;-69
2021/11/21 12:46:05;;;;;;;33.45;5.25;;;16.10;99.90;;;;;;5039124;28;20532;-69
2021/11/21 12:48:32;;;;;;;24.90;1.88;;;16.10;99.90;;;;;;5041093;28;20029;-69
2021/11/21 12:51:05;;;;;;;23.80;3.75;;;16.20;99.90;;;;;;5036439;28;20539;-69
2021/11/21 12:53:35;;;;;;;27.58;4.07;;;16.20;99.90;;;;;;5043095;28;20036;-69